sensor_id;sensor_type;location;lat;lon;timestamp;temperature;humidity
6407;DHT22;3236;51.022;6.818;2024-01-27T00:06:29;2.60;99.90
6407;DHT22;3236;51.022;6.818;2024-01-27T00:08:57;2.40;99.90
6407;DHT22;3236;51.022;6.818;2024-01-27T00:11:24;2.80;99.90
6407;DHT22;3236;51.022;6.818;2024-01-27T00:13:51;2.40;99.90
6407;DHT22;3236;51.022;6.818;2024-01-27T00:16:18;2.60;99.90
6407;DHT22;3236;51.022;6.818;2024-01-27T00:21:13;2.70;99.90
6407;DHT22;3236;51.022;6.818;2024-01-27T00:26:10;2.80;99.90
6407;DHT22;3236;51.022;6.818;2024-01-27T00:31:05;2.50;99.90
6407;DHT22;3236;51.022;6.818;2024-01-27T00:38:27;2.20;99.90
6407;DHT22;3236;51.022;6.818;2024-01-27T00:45:50;1.60;99.90
6407;DHT22;3236;51.022;6.818;2024-01-27T00:50:45;1.60;99.90
6407;DHT22;3236;51.022;6.818;2024-01-27T00:53:13;1.30;99.90
6407;DHT22;3236;51.022;6.818;2024-01-27T00:55:40;1.20;99.90
6407;DHT22;3236;51.022;6.818;2024-01-27T00:58:09;1.10;99.90
6407;DHT22;3236;51.022;6.818;2024-01-27T01:05:38;1.30;99.90
6407;DHT22;3236;51.022;6.818;2024-01-27T01:10:33;1.10;99.90
6407;DHT22;3236;51.022;6.818;2024-01-27T01:13:08;1.10;99.90
6407;DHT22;3236;51.022;6.818;2024-01-27T01:15:35;1.20;99.90
6407;DHT22;3236;51.022;6.818;2024-01-27T01:20:33;1.20;99.90
6407;DHT22;3236;51.022;6.818;2024-01-27T01:25:29;0.50;99.90
6407;DHT22;3236;51.022;6.818;2024-01-27T01:27:56;0.80;99.90
6407;DHT22;3236;51.022;6.818;2024-01-27T01:30:25;1.20;99.90
6407;DHT22;3236;51.022;6.818;2024-01-27T01:32:58;0.50;99.90
6407;DHT22;3236;51.022;6.818;2024-01-27T01:35:25;0.40;99.90
6407;DHT22;3236;51.022;6.818;2024-01-27T01:37:56;0.90;99.90
6407;DHT22;3236;51.022;6.818;2024-01-27T01:40:23;1.10;99.90
6407;DHT22;3236;51.022;6.818;2024-01-27T01:42:51;1.00;99.90
6407;DHT22;3236;51.022;6.818;2024-01-27T01:45:19;0.80;99.90
6407;DHT22;3236;51.022;6.818;2024-01-27T01:47:48;1.20;99.90
6407;DHT22;3236;51.022;6.818;2024-01-27T01:52:47;1.30;99.90
6407;DHT22;3236;51.022;6.818;2024-01-27T01:57:43;1.50;99.90
6407;DHT22;3236;51.022;6.818;2024-01-27T02:05:13;1.10;99.90
6407;DHT22;3236;51.022;6.818;2024-01-27T02:10:13;0.70;99.90
6407;DHT22;3236;51.022;6.818;2024-01-27T02:12:41;0.50;99.90
6407;DHT22;3236;51.022;6.818;2024-01-27T02:15:10;0.90;99.90
6407;DHT22;3236;51.022;6.818;2024-01-27T02:20:07;1.20;99.90
6407;DHT22;3236;51.022;6.818;2024-01-27T02:22:36;1.20;99.90
6407;DHT22;3236;51.022;6.818;2024-01-27T02:25:06;1.10;99.90
6407;DHT22;3236;51.022;6.818;2024-01-27T02:30:00;1.00;99.90
6407;DHT22;3236;51.022;6.818;2024-01-27T02:42:25;1.00;99.90
6407;DHT22;3236;51.022;6.818;2024-01-27T02:44:52;1.00;99.90
6407;DHT22;3236;51.022;6.818;2024-01-27T02:47:19;0.50;99.90
6407;DHT22;3236;51.022;6.818;2024-01-27T02:49:46;0.50;99.90
6407;DHT22;3236;51.022;6.818;2024-01-27T02:52:14;1.10;99.90
6407;DHT22;3236;51.022;6.818;2024-01-27T02:54:41;0.50;99.90
6407;DHT22;3236;51.022;6.818;2024-01-27T02:57:09;0.80;99.90
6407;DHT22;3236;51.022;6.818;2024-01-27T03:02:05;0.90;99.90
6407;DHT22;3236;51.022;6.818;2024-01-27T03:04:35;1.20;99.90
6407;DHT22;3236;51.022;6.818;2024-01-27T03:07:03;1.10;99.90
6407;DHT22;3236;51.022;6.818;2024-01-27T03:09:33;1.00;99.90
6407;DHT22;3236;51.022;6.818;2024-01-27T03:12:00;1.40;99.90
6407;DHT22;3236;51.022;6.818;2024-01-27T03:14:28;1.30;99.90
6407;DHT22;3236;51.022;6.818;2024-01-27T03:16:58;1.20;99.90
6407;DHT22;3236;51.022;6.818;2024-01-27T03:19:28;1.30;99.90
6407;DHT22;3236;51.022;6.818;2024-01-27T03:21:57;1.40;99.90
6407;DHT22;3236;51.022;6.818;2024-01-27T03:26:52;1.10;99.90
6407;DHT22;3236;51.022;6.818;2024-01-27T03:29:20;0.90;99.90
6407;DHT22;3236;51.022;6.818;2024-01-27T03:31:47;1.20;99.90
6407;DHT22;3236;51.022;6.818;2024-01-27T03:34:16;0.70;99.90
6407;DHT22;3236;51.022;6.818;2024-01-27T03:36:48;0.80;99.90
6407;DHT22;3236;51.022;6.818;2024-01-27T03:39:15;0.70;99.90
6407;DHT22;3236;51.022;6.818;2024-01-27T03:41:42;0.90;99.90
6407;DHT22;3236;51.022;6.818;2024-01-27T03:44:13;0.70;99.90
6407;DHT22;3236;51.022;6.818;2024-01-27T03:46:40;0.60;99.90
6407;DHT22;3236;51.022;6.818;2024-01-27T03:51:40;0.60;99.90
6407;DHT22;3236;51.022;6.818;2024-01-27T04:01:32;0.30;99.90
6407;DHT22;3236;51.022;6.818;2024-01-27T04:04:02;0.20;99.90
6407;DHT22;3236;51.022;6.818;2024-01-27T04:06:36;0.40;99.90
6407;DHT22;3236;51.022;6.818;2024-01-27T04:09:05;0.20;99.90
6407;DHT22;3236;51.022;6.818;2024-01-27T04:11:34;0.20;99.90
6407;DHT22;3236;51.022;6.818;2024-01-27T04:14:05;0.30;99.90
6407;DHT22;3236;51.022;6.818;2024-01-27T04:19:01;0.00;99.90
6407;DHT22;3236;51.022;6.818;2024-01-27T04:23:55;0.50;99.90
6407;DHT22;3236;51.022;6.818;2024-01-27T04:28:51;0.30;99.90
6407;DHT22;3236;51.022;6.818;2024-01-27T04:36:26;0.10;99.90
6407;DHT22;3236;51.022;6.818;2024-01-27T04:41:24;0.20;99.90
6407;DHT22;3236;51.022;6.818;2024-01-27T04:43:51;-0.30;99.90
6407;DHT22;3236;51.022;6.818;2024-01-27T04:48:52;-0.10;99.90
6407;DHT22;3236;51.022;6.818;2024-01-27T04:51:19;-0.10;99.90
6407;DHT22;3236;51.022;6.818;2024-01-27T04:58:42;0.00;99.90
6407;DHT22;3236;51.022;6.818;2024-01-27T05:01:09;0.10;99.90
6407;DHT22;3236;51.022;6.818;2024-01-27T05:03:37;-0.20;99.90
6407;DHT22;3236;51.022;6.818;2024-01-27T05:06:07;0.00;99.90
6407;DHT22;3236;51.022;6.818;2024-01-27T05:08:35;-0.30;99.90
6407;DHT22;3236;51.022;6.818;2024-01-27T05:11:03;0.00;99.90
6407;DHT22;3236;51.022;6.818;2024-01-27T05:15:59;-0.30;99.90
6407;DHT22;3236;51.022;6.818;2024-01-27T05:18:27;-0.10;99.90
6407;DHT22;3236;51.022;6.818;2024-01-27T05:23:21;-0.30;99.90
6407;DHT22;3236;51.022;6.818;2024-01-27T05:30:44;-0.50;99.90
6407;DHT22;3236;51.022;6.818;2024-01-27T05:33:15;-0.30;99.90
6407;DHT22;3236;51.022;6.818;2024-01-27T05:35:43;-0.20;99.90
6407;DHT22;3236;51.022;6.818;2024-01-27T05:38:10;-0.30;99.90
6407;DHT22;3236;51.022;6.818;2024-01-27T05:43:06;-0.20;99.90
6407;DHT22;3236;51.022;6.818;2024-01-27T05:45:33;-0.10;99.90
6407;DHT22;3236;51.022;6.818;2024-01-27T05:48:05;-0.30;99.90
6407;DHT22;3236;51.022;6.818;2024-01-27T05:50:34;-0.30;99.90
6407;DHT22;3236;51.022;6.818;2024-01-27T05:53:03;-0.30;99.90
6407;DHT22;3236;51.022;6.818;2024-01-27T06:00:27;-0.20;99.90
6407;DHT22;3236;51.022;6.818;2024-01-27T06:02:54;-0.40;99.90
6407;DHT22;3236;51.022;6.818;2024-01-27T06:07:50;-0.50;99.90
6407;DHT22;3236;51.022;6.818;2024-01-27T06:10:17;-0.40;99.90
6407;DHT22;3236;51.022;6.818;2024-01-27T06:12:45;-0.40;99.90
6407;DHT22;3236;51.022;6.818;2024-01-27T06:17:41;-0.40;99.90
6407;DHT22;3236;51.022;6.818;2024-01-27T06:20:09;-0.40;99.90
6407;DHT22;3236;51.022;6.818;2024-01-27T06:25:07;-0.50;99.90
6407;DHT22;3236;51.022;6.818;2024-01-27T06:30:02;-0.80;99.90
6407;DHT22;3236;51.022;6.818;2024-01-27T06:32:29;-0.50;99.90
6407;DHT22;3236;51.022;6.818;2024-01-27T06:39:51;-0.30;99.90
6407;DHT22;3236;51.022;6.818;2024-01-27T06:42:20;-0.50;99.90
6407;DHT22;3236;51.022;6.818;2024-01-27T06:57:19;-0.40;99.90
6407;DHT22;3236;51.022;6.818;2024-01-27T06:59:54;-0.40;99.90
6407;DHT22;3236;51.022;6.818;2024-01-27T07:07:23;-0.50;99.90
6407;DHT22;3236;51.022;6.818;2024-01-27T07:12:23;-0.20;99.90
6407;DHT22;3236;51.022;6.818;2024-01-27T07:14:51;-0.20;99.90
6407;DHT22;3236;51.022;6.818;2024-01-27T07:17:20;0.40;99.90
6407;DHT22;3236;51.022;6.818;2024-01-27T07:24:42;-0.10;99.90
6407;DHT22;3236;51.022;6.818;2024-01-27T07:27:12;0.30;99.90
6407;DHT22;3236;51.022;6.818;2024-01-27T07:29:41;0.10;99.90
6407;DHT22;3236;51.022;6.818;2024-01-27T07:32:09;0.00;99.90
6407;DHT22;3236;51.022;6.818;2024-01-27T07:34:52;0.10;99.90
6407;DHT22;3236;51.022;6.818;2024-01-27T07:44:45;0.20;99.90
6407;DHT22;3236;51.022;6.818;2024-01-27T07:49:40;-0.10;99.90
6407;DHT22;3236;51.022;6.818;2024-01-27T07:52:10;0.30;99.90
6407;DHT22;3236;51.022;6.818;2024-01-27T07:59:33;0.80;99.90
6407;DHT22;3236;51.022;6.818;2024-01-27T08:02:02;0.80;99.90
6407;DHT22;3236;51.022;6.818;2024-01-27T08:04:29;0.90;99.90
6407;DHT22;3236;51.022;6.818;2024-01-27T08:09:29;0.90;99.90
6407;DHT22;3236;51.022;6.818;2024-01-27T08:22:01;1.10;99.90
6407;DHT22;3236;51.022;6.818;2024-01-27T08:26:57;1.40;99.90
6407;DHT22;3236;51.022;6.818;2024-01-27T08:34:26;1.40;99.90
6407;DHT22;3236;51.022;6.818;2024-01-27T08:46:49;1.80;99.90
6407;DHT22;3236;51.022;6.818;2024-01-27T08:51:45;1.40;99.90
6407;DHT22;3236;51.022;6.818;2024-01-27T08:56:40;2.40;99.90
6407;DHT22;3236;51.022;6.818;2024-01-27T09:01:35;2.50;99.90
6407;DHT22;3236;51.022;6.818;2024-01-27T09:04:02;2.50;99.90
6407;DHT22;3236;51.022;6.818;2024-01-27T09:06:30;2.30;99.90
6407;DHT22;3236;51.022;6.818;2024-01-27T09:09:18;2.30;99.90
6407;DHT22;3236;51.022;6.818;2024-01-27T09:14:14;2.10;99.90
6407;DHT22;3236;51.022;6.818;2024-01-27T09:16:41;2.50;99.90
6407;DHT22;3236;51.022;6.818;2024-01-27T09:19:09;2.50;99.90
6407;DHT22;3236;51.022;6.818;2024-01-27T09:24:05;2.50;99.90
6407;DHT22;3236;51.022;6.818;2024-01-27T09:29:00;3.00;99.90
6407;DHT22;3236;51.022;6.818;2024-01-27T09:33:58;3.20;99.90
6407;DHT22;3236;51.022;6.818;2024-01-27T09:41:23;3.20;99.90
6407;DHT22;3236;51.022;6.818;2024-01-27T09:43:51;3.50;99.90
6407;DHT22;3236;51.022;6.818;2024-01-27T09:46:23;3.60;99.90
6407;DHT22;3236;51.022;6.818;2024-01-27T09:48:50;3.60;99.90
6407;DHT22;3236;51.022;6.818;2024-01-27T09:51:19;3.30;99.90
6407;DHT22;3236;51.022;6.818;2024-01-27T09:53:47;3.30;99.90
6407;DHT22;3236;51.022;6.818;2024-01-27T09:56:20;3.40;99.90
6407;DHT22;3236;51.022;6.818;2024-01-27T10:01:21;3.60;99.90
6407;DHT22;3236;51.022;6.818;2024-01-27T10:03:51;3.30;99.90
6407;DHT22;3236;51.022;6.818;2024-01-27T10:08:54;3.60;99.90
6407;DHT22;3236;51.022;6.818;2024-01-27T10:16:26;3.90;99.90
6407;DHT22;3236;51.022;6.818;2024-01-27T10:18:59;3.90;99.90
6407;DHT22;3236;51.022;6.818;2024-01-27T10:26:22;4.10;99.90
6407;DHT22;3236;51.022;6.818;2024-01-27T10:28:53;4.00;99.90
6407;DHT22;3236;51.022;6.818;2024-01-27T10:31:26;4.20;99.90
6407;DHT22;3236;51.022;6.818;2024-01-27T10:33:54;4.30;99.90
6407;DHT22;3236;51.022;6.818;2024-01-27T10:36:22;4.30;99.90
6407;DHT22;3236;51.022;6.818;2024-01-27T10:41:21;4.60;99.90
6407;DHT22;3236;51.022;6.818;2024-01-27T10:43:50;4.60;99.90
6407;DHT22;3236;51.022;6.818;2024-01-27T10:46:19;4.70;99.90
6407;DHT22;3236;51.022;6.818;2024-01-27T10:48:51;4.90;99.90
6407;DHT22;3236;51.022;6.818;2024-01-27T10:51:26;5.00;99.90
6407;DHT22;3236;51.022;6.818;2024-01-27T10:54:00;5.10;99.90
6407;DHT22;3236;51.022;6.818;2024-01-27T10:56:29;5.30;99.90
6407;DHT22;3236;51.022;6.818;2024-01-27T10:58:58;5.40;99.90
6407;DHT22;3236;51.022;6.818;2024-01-27T11:03:55;5.50;99.90
6407;DHT22;3236;51.022;6.818;2024-01-27T11:08:50;5.10;99.90
6407;DHT22;3236;51.022;6.818;2024-01-27T11:11:21;5.40;99.90
6407;DHT22;3236;51.022;6.818;2024-01-27T11:13:52;5.60;99.90
6407;DHT22;3236;51.022;6.818;2024-01-27T11:16:24;5.80;99.90
6407;DHT22;3236;51.022;6.818;2024-01-27T11:18:58;6.60;99.90
6407;DHT22;3236;51.022;6.818;2024-01-27T11:31:35;10.40;99.90
6407;DHT22;3236;51.022;6.818;2024-01-27T11:34:10;11.90;99.90
6407;DHT22;3236;51.022;6.818;2024-01-27T11:36:43;12.50;99.90
6407;DHT22;3236;51.022;6.818;2024-01-27T11:39:26;12.70;99.90
6407;DHT22;3236;51.022;6.818;2024-01-27T11:42:05;11.60;61.50
6407;DHT22;3236;51.022;6.818;2024-01-27T11:49:31;13.60;1.00
6407;DHT22;3236;51.022;6.818;2024-01-27T11:51:59;14.70;99.90
6407;DHT22;3236;51.022;6.818;2024-01-27T11:54:27;15.00;99.90
6407;DHT22;3236;51.022;6.818;2024-01-27T12:01:49;15.70;99.90
6407;DHT22;3236;51.022;6.818;2024-01-27T12:04:17;17.40;99.90
6407;DHT22;3236;51.022;6.818;2024-01-27T12:06:47;16.10;99.90
6407;DHT22;3236;51.022;6.818;2024-01-27T12:09:15;16.00;99.90
6407;DHT22;3236;51.022;6.818;2024-01-27T12:11:43;15.80;66.80
6407;DHT22;3236;51.022;6.818;2024-01-27T12:14:14;14.70;2.80
6407;DHT22;3236;51.022;6.818;2024-01-27T12:21:37;15.90;1.00
6407;DHT22;3236;51.022;6.818;2024-01-27T12:24:16;17.30;1.00
6407;DHT22;3236;51.022;6.818;2024-01-27T12:26:44;16.90;99.90
6407;DHT22;3236;51.022;6.818;2024-01-27T12:31:39;17.20;99.90
6407;DHT22;3236;51.022;6.818;2024-01-27T12:34:07;18.20;99.90
6407;DHT22;3236;51.022;6.818;2024-01-27T12:36:40;17.80;99.90
6407;DHT22;3236;51.022;6.818;2024-01-27T12:39:09;18.10;99.90
6407;DHT22;3236;51.022;6.818;2024-01-27T12:44:06;17.70;99.90
6407;DHT22;3236;51.022;6.818;2024-01-27T12:51:35;17.70;99.90
6407;DHT22;3236;51.022;6.818;2024-01-27T12:54:03;17.80;99.90
6407;DHT22;3236;51.022;6.818;2024-01-27T12:59:01;18.30;99.90
6407;DHT22;3236;51.022;6.818;2024-01-27T13:01:28;17.30;99.90
6407;DHT22;3236;51.022;6.818;2024-01-27T13:03:55;17.50;99.90
6407;DHT22;3236;51.022;6.818;2024-01-27T13:13:46;16.90;99.90
6407;DHT22;3236;51.022;6.818;2024-01-27T13:16:13;15.20;99.90
6407;DHT22;3236;51.022;6.818;2024-01-27T13:18:40;16.60;99.90
6407;DHT22;3236;51.022;6.818;2024-01-27T13:21:07;17.80;99.90
6407;DHT22;3236;51.022;6.818;2024-01-27T13:26:02;18.20;99.90
6407;DHT22;3236;51.022;6.818;2024-01-27T13:28:29;17.70;99.90
6407;DHT22;3236;51.022;6.818;2024-01-27T13:30:58;18.30;99.90
6407;DHT22;3236;51.022;6.818;2024-01-27T13:33:25;17.70;99.90
6407;DHT22;3236;51.022;6.818;2024-01-27T13:35:54;18.10;99.90
6407;DHT22;3236;51.022;6.818;2024-01-27T13:38:21;18.10;99.90
6407;DHT22;3236;51.022;6.818;2024-01-27T13:40:49;17.60;99.90
6407;DHT22;3236;51.022;6.818;2024-01-27T13:43:19;17.20;99.90
6407;DHT22;3236;51.022;6.818;2024-01-27T13:45:47;16.10;99.90
6407;DHT22;3236;51.022;6.818;2024-01-27T13:48:15;16.40;99.90
6407;DHT22;3236;51.022;6.818;2024-01-27T13:53:14;17.00;99.90
6407;DHT22;3236;51.022;6.818;2024-01-27T13:55:42;17.30;99.90
6407;DHT22;3236;51.022;6.818;2024-01-27T13:58:10;17.40;99.90
6407;DHT22;3236;51.022;6.818;2024-01-27T14:00:37;17.90;99.90
6407;DHT22;3236;51.022;6.818;2024-01-27T14:03:04;18.10;99.90
6407;DHT22;3236;51.022;6.818;2024-01-27T14:08:00;16.20;99.90
6407;DHT22;3236;51.022;6.818;2024-01-27T14:10:29;16.10;99.90
6407;DHT22;3236;51.022;6.818;2024-01-27T14:15:23;16.20;99.90
6407;DHT22;3236;51.022;6.818;2024-01-27T14:17:50;17.10;99.90
6407;DHT22;3236;51.022;6.818;2024-01-27T14:25:16;15.40;99.90
6407;DHT22;3236;51.022;6.818;2024-01-27T14:27:44;15.80;99.90
6407;DHT22;3236;51.022;6.818;2024-01-27T14:30:14;15.60;99.90
6407;DHT22;3236;51.022;6.818;2024-01-27T14:32:50;14.90;99.90
6407;DHT22;3236;51.022;6.818;2024-01-27T14:35:17;14.40;99.90
6407;DHT22;3236;51.022;6.818;2024-01-27T14:37:44;14.40;99.90
6407;DHT22;3236;51.022;6.818;2024-01-27T14:40:12;15.10;99.90
6407;DHT22;3236;51.022;6.818;2024-01-27T14:42:41;14.80;99.90
6407;DHT22;3236;51.022;6.818;2024-01-27T14:45:09;14.20;99.90
6407;DHT22;3236;51.022;6.818;2024-01-27T14:47:36;13.90;99.90
6407;DHT22;3236;51.022;6.818;2024-01-27T14:50:04;14.10;99.90
6407;DHT22;3236;51.022;6.818;2024-01-27T14:52:32;14.70;99.90
6407;DHT22;3236;51.022;6.818;2024-01-27T14:55:00;13.80;99.90
6407;DHT22;3236;51.022;6.818;2024-01-27T14:57:28;13.40;99.90
6407;DHT22;3236;51.022;6.818;2024-01-27T14:59:56;12.30;99.90
6407;DHT22;3236;51.022;6.818;2024-01-27T15:02:24;12.90;99.90
6407;DHT22;3236;51.022;6.818;2024-01-27T15:07:19;11.80;99.90
6407;DHT22;3236;51.022;6.818;2024-01-27T15:09:46;11.90;99.90
6407;DHT22;3236;51.022;6.818;2024-01-27T15:12:14;12.20;99.90
6407;DHT22;3236;51.022;6.818;2024-01-27T15:17:15;11.40;99.90
6407;DHT22;3236;51.022;6.818;2024-01-27T15:19:43;11.00;99.90
6407;DHT22;3236;51.022;6.818;2024-01-27T15:22:11;10.90;99.90
6407;DHT22;3236;51.022;6.818;2024-01-27T15:24:39;10.50;99.90
6407;DHT22;3236;51.022;6.818;2024-01-27T15:27:06;10.20;99.90
6407;DHT22;3236;51.022;6.818;2024-01-27T15:29:34;9.60;99.90
6407;DHT22;3236;51.022;6.818;2024-01-27T15:32:02;9.10;99.90
6407;DHT22;3236;51.022;6.818;2024-01-27T15:34:30;8.60;99.90
6407;DHT22;3236;51.022;6.818;2024-01-27T15:39:25;8.40;88.20
6407;DHT22;3236;51.022;6.818;2024-01-27T15:41:52;8.40;99.90
6407;DHT22;3236;51.022;6.818;2024-01-27T15:46:49;7.90;99.90
6407;DHT22;3236;51.022;6.818;2024-01-27T15:49:32;7.60;99.90
6407;DHT22;3236;51.022;6.818;2024-01-27T15:52:10;7.40;99.90
6407;DHT22;3236;51.022;6.818;2024-01-27T15:54:44;7.00;1.00
6407;DHT22;3236;51.022;6.818;2024-01-27T15:57:29;6.90;99.90
6407;DHT22;3236;51.022;6.818;2024-01-27T16:00:00;6.90;99.90
6407;DHT22;3236;51.022;6.818;2024-01-27T16:04:56;6.50;99.90
6407;DHT22;3236;51.022;6.818;2024-01-27T16:12:22;6.10;92.70
6407;DHT22;3236;51.022;6.818;2024-01-27T16:17:18;5.70;99.90
6407;DHT22;3236;51.022;6.818;2024-01-27T16:19:58;5.60;1.00
6407;DHT22;3236;51.022;6.818;2024-01-27T16:22:30;5.50;99.90
6407;DHT22;3236;51.022;6.818;2024-01-27T16:32:29;4.70;99.90
6407;DHT22;3236;51.022;6.818;2024-01-27T16:44:50;4.30;99.90
6407;DHT22;3236;51.022;6.818;2024-01-27T16:47:18;4.60;99.90
6407;DHT22;3236;51.022;6.818;2024-01-27T16:59:38;4.10;31.30
6407;DHT22;3236;51.022;6.818;2024-01-27T17:02:05;4.00;99.90
6407;DHT22;3236;51.022;6.818;2024-01-27T17:09:29;3.90;99.90
6407;DHT22;3236;51.022;6.818;2024-01-27T17:16:55;3.70;99.90
6407;DHT22;3236;51.022;6.818;2024-01-27T17:19:22;3.10;1.00
6407;DHT22;3236;51.022;6.818;2024-01-27T17:21:54;3.40;1.00
6407;DHT22;3236;51.022;6.818;2024-01-27T17:24:22;3.80;65.70
6407;DHT22;3236;51.022;6.818;2024-01-27T17:26:50;3.60;99.90
6407;DHT22;3236;51.022;6.818;2024-01-27T17:29:18;3.80;99.90
6407;DHT22;3236;51.022;6.818;2024-01-27T17:31:46;3.90;99.90
6407;DHT22;3236;51.022;6.818;2024-01-27T17:34:14;3.40;99.90
6407;DHT22;3236;51.022;6.818;2024-01-27T17:36:43;3.20;1.00
6407;DHT22;3236;51.022;6.818;2024-01-27T17:46:44;3.50;91.90
6407;DHT22;3236;51.022;6.818;2024-01-27T17:54:14;3.30;17.30
6407;DHT22;3236;51.022;6.818;2024-01-27T18:04:07;3.20;99.90
6407;DHT22;3236;51.022;6.818;2024-01-27T18:09:05;2.80;99.90
6407;DHT22;3236;51.022;6.818;2024-01-27T18:14:02;2.40;99.90
6407;DHT22;3236;51.022;6.818;2024-01-27T18:16:30;3.50;99.90
6407;DHT22;3236;51.022;6.818;2024-01-27T18:21:27;2.90;99.90
6407;DHT22;3236;51.022;6.818;2024-01-27T18:23:56;3.10;99.90
6407;DHT22;3236;51.022;6.818;2024-01-27T18:36:18;3.30;99.90
6407;DHT22;3236;51.022;6.818;2024-01-27T18:48:54;3.00;1.00
6407;DHT22;3236;51.022;6.818;2024-01-27T18:54:04;2.40;1.00
6407;DHT22;3236;51.022;6.818;2024-01-27T18:58:59;2.70;15.60
6407;DHT22;3236;51.022;6.818;2024-01-27T19:01:33;2.30;18.30
6407;DHT22;3236;51.022;6.818;2024-01-27T19:04:11;2.20;77.80
6407;DHT22;3236;51.022;6.818;2024-01-27T19:06:46;2.40;77.00
6407;DHT22;3236;51.022;6.818;2024-01-27T19:09:21;2.70;99.90
6407;DHT22;3236;51.022;6.818;2024-01-27T19:11:48;1.90;99.90
6407;DHT22;3236;51.022;6.818;2024-01-27T19:14:15;2.50;99.90
6407;DHT22;3236;51.022;6.818;2024-01-27T19:16:42;2.60;99.90
6407;DHT22;3236;51.022;6.818;2024-01-27T19:19:10;2.10;99.90
6407;DHT22;3236;51.022;6.818;2024-01-27T19:21:46;1.90;99.90
6407;DHT22;3236;51.022;6.818;2024-01-27T19:24:17;2.10;99.90
6407;DHT22;3236;51.022;6.818;2024-01-27T19:26:45;2.10;99.90
6407;DHT22;3236;51.022;6.818;2024-01-27T19:29:12;2.60;99.90
6407;DHT22;3236;51.022;6.818;2024-01-27T19:31:40;2.00;99.90
6407;DHT22;3236;51.022;6.818;2024-01-27T19:34:10;2.10;99.90
6407;DHT22;3236;51.022;6.818;2024-01-27T19:36:37;2.70;99.90
6407;DHT22;3236;51.022;6.818;2024-01-27T19:39:06;2.10;99.90
6407;DHT22;3236;51.022;6.818;2024-01-27T19:41:34;2.40;99.90
6407;DHT22;3236;51.022;6.818;2024-01-27T19:44:01;2.20;99.90
6407;DHT22;3236;51.022;6.818;2024-01-27T19:48:56;2.00;99.90
6407;DHT22;3236;51.022;6.818;2024-01-27T19:51:23;2.00;99.90
6407;DHT22;3236;51.022;6.818;2024-01-27T19:53:51;2.30;99.90
6407;DHT22;3236;51.022;6.818;2024-01-27T19:56:20;2.00;99.90
6407;DHT22;3236;51.022;6.818;2024-01-27T19:58:47;2.20;99.90
6407;DHT22;3236;51.022;6.818;2024-01-27T20:01:15;1.70;99.90
6407;DHT22;3236;51.022;6.818;2024-01-27T20:03:43;1.80;99.90
6407;DHT22;3236;51.022;6.818;2024-01-27T20:06:11;2.00;99.90
6407;DHT22;3236;51.022;6.818;2024-01-27T20:11:07;1.90;99.90
6407;DHT22;3236;51.022;6.818;2024-01-27T20:13:36;2.40;99.90
6407;DHT22;3236;51.022;6.818;2024-01-27T20:16:04;1.80;99.90
6407;DHT22;3236;51.022;6.818;2024-01-27T20:18:33;2.70;99.90
6407;DHT22;3236;51.022;6.818;2024-01-27T20:21:00;2.40;99.90
6407;DHT22;3236;51.022;6.818;2024-01-27T20:23:28;2.40;99.90
6407;DHT22;3236;51.022;6.818;2024-01-27T20:25:57;2.00;99.90
6407;DHT22;3236;51.022;6.818;2024-01-27T20:28:26;1.80;99.90
6407;DHT22;3236;51.022;6.818;2024-01-27T20:30:55;2.10;99.90
6407;DHT22;3236;51.022;6.818;2024-01-27T20:33:22;2.20;99.90
6407;DHT22;3236;51.022;6.818;2024-01-27T20:38:17;2.00;99.90
6407;DHT22;3236;51.022;6.818;2024-01-27T20:45:41;2.10;99.90
6407;DHT22;3236;51.022;6.818;2024-01-27T20:48:10;1.90;99.90
6407;DHT22;3236;51.022;6.818;2024-01-27T20:50:40;2.80;99.90
6407;DHT22;3236;51.022;6.818;2024-01-27T20:55:36;2.10;99.90
6407;DHT22;3236;51.022;6.818;2024-01-27T20:58:04;2.10;99.90
6407;DHT22;3236;51.022;6.818;2024-01-27T21:05:45;2.00;99.90
6407;DHT22;3236;51.022;6.818;2024-01-27T21:08:12;2.20;99.90
6407;DHT22;3236;51.022;6.818;2024-01-27T21:10:43;1.90;99.90
6407;DHT22;3236;51.022;6.818;2024-01-27T21:13:11;2.00;99.90
6407;DHT22;3236;51.022;6.818;2024-01-27T21:23:05;1.70;99.90
6407;DHT22;3236;51.022;6.818;2024-01-27T21:33:04;1.70;99.90
6407;DHT22;3236;51.022;6.818;2024-01-27T21:35:35;1.40;99.90
6407;DHT22;3236;51.022;6.818;2024-01-27T21:38:03;1.10;99.90
6407;DHT22;3236;51.022;6.818;2024-01-27T21:40:34;1.40;99.90
6407;DHT22;3236;51.022;6.818;2024-01-27T21:43:03;1.10;99.90
6407;DHT22;3236;51.022;6.818;2024-01-27T21:45:31;1.20;99.90
6407;DHT22;3236;51.022;6.818;2024-01-27T21:47:59;1.50;99.90
6407;DHT22;3236;51.022;6.818;2024-01-27T21:50:32;1.60;99.90
6407;DHT22;3236;51.022;6.818;2024-01-27T21:52:59;1.10;99.90
6407;DHT22;3236;51.022;6.818;2024-01-27T21:55:36;1.00;99.90
6407;DHT22;3236;51.022;6.818;2024-01-27T21:58:03;1.30;99.90
6407;DHT22;3236;51.022;6.818;2024-01-27T22:00:32;1.10;99.90
6407;DHT22;3236;51.022;6.818;2024-01-27T22:03:03;1.60;99.90
6407;DHT22;3236;51.022;6.818;2024-01-27T22:07:58;1.40;99.90
6407;DHT22;3236;51.022;6.818;2024-01-27T22:10:28;1.00;99.90
6407;DHT22;3236;51.022;6.818;2024-01-27T22:13:00;1.30;99.90
6407;DHT22;3236;51.022;6.818;2024-01-27T22:15:27;1.10;99.90
6407;DHT22;3236;51.022;6.818;2024-01-27T22:17:55;1.00;99.90
6407;DHT22;3236;51.022;6.818;2024-01-27T22:20:23;1.20;99.90
6407;DHT22;3236;51.022;6.818;2024-01-27T22:25:17;0.90;99.90
6407;DHT22;3236;51.022;6.818;2024-01-27T22:27:45;1.20;99.90
6407;DHT22;3236;51.022;6.818;2024-01-27T22:30:16;1.40;99.90
6407;DHT22;3236;51.022;6.818;2024-01-27T22:32:43;1.50;99.90
6407;DHT22;3236;51.022;6.818;2024-01-27T22:35:12;1.60;99.90
6407;DHT22;3236;51.022;6.818;2024-01-27T22:37:39;1.40;99.90
6407;DHT22;3236;51.022;6.818;2024-01-27T22:40:10;1.40;99.90
6407;DHT22;3236;51.022;6.818;2024-01-27T22:42:37;2.90;99.90
6407;DHT22;3236;51.022;6.818;2024-01-27T22:45:05;1.60;99.90
6407;DHT22;3236;51.022;6.818;2024-01-27T22:47:34;1.80;99.90
6407;DHT22;3236;51.022;6.818;2024-01-27T22:50:02;1.70;99.90
6407;DHT22;3236;51.022;6.818;2024-01-27T22:52:29;1.60;99.90
6407;DHT22;3236;51.022;6.818;2024-01-27T22:54:56;1.80;99.90
6407;DHT22;3236;51.022;6.818;2024-01-27T22:57:23;1.90;99.90
6407;DHT22;3236;51.022;6.818;2024-01-27T22:59:50;2.10;99.90
6407;DHT22;3236;51.022;6.818;2024-01-27T23:02:18;1.70;99.90
6407;DHT22;3236;51.022;6.818;2024-01-27T23:04:46;1.90;99.90
6407;DHT22;3236;51.022;6.818;2024-01-27T23:07:13;1.90;99.90
6407;DHT22;3236;51.022;6.818;2024-01-27T23:09:41;1.70;99.90
6407;DHT22;3236;51.022;6.818;2024-01-27T23:12:08;1.40;99.90
6407;DHT22;3236;51.022;6.818;2024-01-27T23:14:36;1.70;99.90
6407;DHT22;3236;51.022;6.818;2024-01-27T23:17:04;1.60;99.90
6407;DHT22;3236;51.022;6.818;2024-01-27T23:19:31;1.40;99.90
6407;DHT22;3236;51.022;6.818;2024-01-27T23:21:59;1.60;99.90
6407;DHT22;3236;51.022;6.818;2024-01-27T23:24:26;1.30;99.90
6407;DHT22;3236;51.022;6.818;2024-01-27T23:26:53;1.50;99.90
6407;DHT22;3236;51.022;6.818;2024-01-27T23:29:21;1.50;99.90
6407;DHT22;3236;51.022;6.818;2024-01-27T23:31:48;1.40;99.90
6407;DHT22;3236;51.022;6.818;2024-01-27T23:34:17;1.00;99.90
6407;DHT22;3236;51.022;6.818;2024-01-27T23:36:44;1.20;99.90
6407;DHT22;3236;51.022;6.818;2024-01-27T23:39:13;1.00;99.90
6407;DHT22;3236;51.022;6.818;2024-01-27T23:41:40;1.10;99.90
6407;DHT22;3236;51.022;6.818;2024-01-27T23:44:07;0.80;99.90
6407;DHT22;3236;51.022;6.818;2024-01-27T23:46:34;0.70;99.90
6407;DHT22;3236;51.022;6.818;2024-01-27T23:49:04;1.10;99.90
6407;DHT22;3236;51.022;6.818;2024-01-27T23:51:31;1.80;99.90
6407;DHT22;3236;51.022;6.818;2024-01-27T23:54:00;0.80;99.90
6407;DHT22;3236;51.022;6.818;2024-01-27T23:56:29;0.60;99.90
6407;DHT22;3236;51.022;6.818;2024-01-27T23:59:02;0.80;99.90
